createdAt,value
2023-01-22T00:00:04.427Z,2.23
2023-01-22T00:02:30.935Z,2.30
2023-01-22T00:04:57.447Z,2.13
2023-01-22T00:07:23.992Z,2.29
2023-01-22T00:09:50.521Z,2.37
2023-01-22T00:12:17.119Z,2.29
2023-01-22T00:14:43.770Z,2.31
2023-01-22T00:17:10.711Z,2.40
2023-01-22T00:19:37.323Z,2.39
2023-01-22T00:22:03.734Z,2.35
2023-01-22T00:24:30.188Z,2.47
2023-01-22T00:26:56.643Z,2.28
2023-01-22T00:29:23.134Z,2.34
2023-01-22T00:31:49.858Z,2.29
2023-01-22T00:34:16.447Z,2.44
2023-01-22T00:36:43.034Z,2.50
2023-01-22T00:39:10.230Z,2.37
2023-01-22T00:41:36.847Z,2.47
2023-01-22T00:44:03.582Z,2.44
2023-01-22T00:46:30.070Z,2.36
2023-01-22T00:48:56.693Z,2.37
2023-01-22T00:51:23.257Z,2.24
2023-01-22T00:53:49.710Z,2.29
2023-01-22T00:56:16.178Z,2.42
2023-01-22T00:58:42.953Z,2.27
2023-01-22T01:01:09.731Z,2.44
2023-01-22T01:03:37.637Z,2.40
2023-01-22T01:06:10.828Z,2.58
2023-01-22T01:08:39.840Z,2.46
2023-01-22T01:11:09.044Z,2.55
2023-01-22T01:13:39.029Z,2.41
2023-01-22T01:16:07.827Z,2.44
2023-01-22T01:18:35.337Z,2.45
2023-01-22T01:21:02.301Z,2.40
2023-01-22T01:23:29.260Z,2.40
2023-01-22T01:25:56.095Z,2.50
2023-01-22T01:28:22.755Z,2.47
2023-01-22T01:30:49.248Z,2.53
2023-01-22T01:33:15.690Z,2.53
2023-01-22T01:35:42.319Z,2.54
2023-01-22T01:38:08.927Z,2.57
2023-01-22T01:40:35.600Z,2.54
2023-01-22T01:43:02.039Z,2.48
2023-01-22T01:45:32.248Z,2.53
2023-01-22T01:48:22.785Z,2.58
2023-01-22T01:50:56.194Z,2.45
2023-01-22T01:53:22.905Z,2.38
2023-01-22T01:55:49.872Z,2.50
2023-01-22T01:58:21.663Z,2.61
2023-01-22T02:00:51.669Z,2.63
2023-01-22T02:03:19.213Z,2.47
2023-01-22T02:05:45.830Z,2.53
2023-01-22T02:08:12.865Z,2.60
2023-01-22T02:10:39.778Z,2.52
2023-01-22T02:13:12.691Z,2.43
2023-01-22T02:15:39.762Z,2.52
2023-01-22T02:18:06.721Z,2.44
2023-01-22T02:20:51.367Z,2.50
2023-01-22T02:23:18.079Z,2.52
2023-01-22T02:25:44.518Z,2.44
2023-01-22T02:28:11.111Z,2.44
2023-01-22T02:30:37.692Z,2.33
2023-01-22T02:33:04.206Z,2.30
2023-01-22T02:35:30.632Z,2.37
2023-01-22T02:37:57.249Z,2.37
2023-01-22T02:40:23.708Z,2.30
2023-01-22T02:42:50.117Z,2.22
2023-01-22T02:45:16.732Z,2.18
2023-01-22T02:47:43.150Z,2.25
2023-01-22T02:50:10.608Z,2.16
2023-01-22T02:52:37.127Z,2.28
2023-01-22T02:55:03.746Z,2.26
2023-01-22T02:57:31.503Z,2.29
2023-01-22T02:59:58.461Z,2.30
2023-01-22T03:02:25.877Z,2.38
2023-01-22T03:05:03.094Z,2.46
2023-01-22T03:07:44.942Z,2.20
2023-01-22T03:10:21.445Z,2.30
2023-01-22T03:13:06.724Z,2.19
2023-01-22T03:15:52.321Z,2.19
2023-01-22T03:18:37.536Z,2.23
2023-01-22T03:21:13.449Z,2.39
2023-01-22T03:23:40.181Z,2.23
2023-01-22T03:26:07.423Z,2.25
2023-01-22T03:28:34.298Z,2.21
2023-01-22T03:31:00.810Z,2.04
2023-01-22T03:33:27.470Z,2.18
2023-01-22T03:35:53.954Z,2.03
2023-01-22T03:38:20.367Z,2.11
2023-01-22T03:40:46.928Z,2.07
2023-01-22T03:43:13.329Z,2.09
2023-01-22T03:45:39.804Z,2.09
2023-01-22T03:48:07.545Z,2.07
2023-01-22T03:50:35.559Z,2.01
2023-01-22T03:53:06.335Z,2.09
2023-01-22T03:55:32.809Z,2.04
2023-01-22T03:57:59.251Z,2.06
2023-01-22T04:00:25.762Z,2.03
2023-01-22T04:02:53.585Z,2.10
2023-01-22T04:05:20.374Z,2.20
2023-01-22T04:07:49.392Z,2.12
2023-01-22T04:10:17.263Z,2.16
2023-01-22T04:12:44.047Z,2.21
2023-01-22T04:15:11.128Z,2.09
2023-01-22T04:17:37.607Z,2.15
2023-01-22T04:20:04.443Z,2.15
2023-01-22T04:22:30.945Z,2.20
2023-01-22T04:24:57.578Z,2.18
2023-01-22T04:27:24.136Z,2.16
2023-01-22T04:29:51.445Z,2.10
2023-01-22T04:32:17.911Z,2.10
2023-01-22T04:34:44.432Z,2.03
2023-01-22T04:37:10.863Z,2.04
2023-01-22T04:39:37.289Z,2.11
2023-01-22T04:42:03.905Z,2.10
2023-01-22T04:44:30.309Z,2.11
2023-01-22T04:46:56.719Z,2.15
2023-01-22T04:49:23.183Z,2.17
2023-01-22T04:51:49.619Z,2.27
2023-01-22T04:54:16.257Z,2.20
2023-01-22T04:56:42.684Z,2.25
2023-01-22T04:59:09.138Z,2.24
2023-01-22T05:01:35.687Z,2.17
2023-01-22T05:04:02.750Z,2.25
2023-01-22T05:06:30.785Z,2.28
2023-01-22T05:08:57.431Z,2.17
2023-01-22T05:11:23.847Z,2.01
2023-01-22T05:13:50.402Z,2.21
2023-01-22T05:16:16.832Z,2.16
2023-01-22T05:18:43.443Z,2.20
2023-01-22T05:21:09.911Z,2.28
2023-01-22T05:23:36.441Z,2.29
2023-01-22T05:26:02.979Z,2.31
2023-01-22T05:28:29.630Z,2.35
2023-01-22T05:30:56.170Z,2.34
2023-01-22T05:33:22.746Z,2.32
2023-01-22T05:35:56.439Z,2.22
2023-01-22T05:38:23.645Z,2.20
2023-01-22T05:40:50.174Z,2.30
2023-01-22T05:43:16.865Z,2.29
2023-01-22T05:45:43.321Z,2.30
2023-01-22T05:48:09.796Z,2.34
2023-01-22T05:50:36.734Z,2.30
2023-01-22T05:53:03.711Z,2.25
2023-01-22T05:55:30.325Z,2.24
2023-01-22T05:57:56.995Z,2.32
2023-01-22T06:00:23.705Z,2.27
2023-01-22T06:02:54.194Z,2.26
2023-01-22T06:05:20.723Z,2.24
2023-01-22T06:07:47.191Z,2.26
2023-01-22T06:10:13.751Z,2.24
2023-01-22T06:12:40.623Z,2.33
2023-01-22T06:15:07.752Z,2.29
2023-01-22T06:17:34.289Z,2.41
2023-01-22T06:20:00.802Z,2.44
2023-01-22T06:22:27.445Z,2.35
2023-01-22T06:24:55.517Z,2.54
2023-01-22T06:27:22.069Z,2.29
2023-01-22T06:29:48.608Z,2.41
2023-01-22T06:32:15.059Z,2.60
2023-01-22T06:34:41.664Z,2.64
2023-01-22T06:37:08.293Z,2.51
2023-01-22T06:39:34.752Z,2.26
2023-01-22T06:42:01.257Z,2.27
2023-01-22T06:44:27.731Z,2.26
2023-01-22T06:46:54.198Z,2.24
2023-01-22T06:49:20.682Z,2.30
2023-01-22T06:51:47.285Z,2.18
2023-01-22T06:54:13.824Z,2.18
2023-01-22T06:56:40.231Z,2.21
2023-01-22T06:59:06.726Z,2.18
2023-01-22T07:01:33.406Z,2.27
2023-01-22T07:04:00.308Z,2.28
2023-01-22T07:06:26.809Z,2.12
2023-01-22T07:08:54.173Z,2.25
2023-01-22T07:11:20.720Z,2.34
2023-01-22T07:13:47.172Z,2.38
2023-01-22T07:16:13.673Z,2.28
2023-01-22T07:18:40.147Z,2.34
2023-01-22T07:21:06.828Z,2.32
2023-01-22T07:23:33.640Z,2.32
2023-01-22T07:26:00.276Z,2.31
2023-01-22T07:28:26.930Z,2.37
2023-01-22T07:30:53.442Z,2.31
2023-01-22T07:33:20.034Z,2.33
2023-01-22T07:35:54.399Z,2.28
2023-01-22T07:38:20.948Z,2.37
2023-01-22T07:40:47.647Z,2.36
2023-01-22T07:43:15.217Z,2.37
2023-01-22T07:45:41.869Z,2.44
2023-01-22T07:48:10.904Z,2.38
2023-01-22T07:50:40.214Z,2.35
2023-01-22T07:53:07.792Z,2.35
2023-01-22T07:55:34.326Z,2.35
2023-01-22T07:58:06.283Z,2.38
2023-01-22T08:00:35.239Z,2.35
2023-01-22T08:03:04.375Z,2.35
2023-01-22T08:05:30.820Z,2.35
2023-01-22T08:07:57.856Z,2.39
2023-01-22T08:10:24.555Z,2.40
2023-01-22T08:12:51.021Z,2.47
2023-01-22T08:15:17.749Z,2.39
2023-01-22T08:17:44.310Z,2.37
2023-01-22T08:20:11.216Z,2.46
2023-01-22T08:22:38.129Z,2.43
2023-01-22T08:25:04.993Z,2.48
2023-01-22T08:27:31.680Z,2.46
2023-01-22T08:29:58.164Z,2.50
2023-01-22T08:32:24.755Z,2.38
2023-01-22T08:34:54.151Z,2.51
2023-01-22T08:37:22.261Z,2.54
2023-01-22T08:39:48.724Z,2.42
2023-01-22T08:42:15.963Z,2.67
2023-01-22T08:44:42.454Z,2.64
2023-01-22T08:47:10.863Z,2.83
2023-01-22T08:49:37.460Z,2.79
2023-01-22T08:52:03.997Z,2.90
2023-01-22T08:54:30.486Z,2.83
2023-01-22T08:56:56.901Z,3.01
2023-01-22T08:59:23.459Z,3.12
2023-01-22T09:01:49.981Z,2.87
2023-01-22T09:04:16.624Z,2.69
2023-01-22T09:06:43.187Z,2.62
2023-01-22T09:09:09.730Z,2.60
2023-01-22T09:11:36.214Z,2.59
2023-01-22T09:14:03.713Z,2.63
2023-01-22T09:16:32.988Z,2.58
2023-01-22T09:18:59.758Z,2.63
2023-01-22T09:21:26.303Z,2.60
2023-01-22T09:23:53.740Z,2.64
2023-01-22T09:26:21.150Z,2.73
2023-01-22T09:28:47.758Z,2.76
2023-01-22T09:31:14.952Z,2.72
2023-01-22T09:33:41.821Z,2.81
2023-01-22T09:36:12.539Z,2.72
2023-01-22T09:38:39.134Z,2.81
2023-01-22T09:41:28.721Z,2.79
2023-01-22T09:44:20.426Z,2.82
2023-01-22T09:46:54.413Z,2.90
2023-01-22T09:49:24.415Z,2.94
2023-01-22T09:51:59.726Z,2.88
2023-01-22T09:54:28.437Z,3.05
2023-01-22T09:56:58.113Z,3.16
2023-01-22T09:59:32.799Z,3.11
2023-01-22T10:02:04.351Z,3.16
2023-01-22T10:04:44.407Z,3.07
2023-01-22T10:07:17.875Z,3.49
2023-01-22T10:09:51.313Z,3.62
2023-01-22T10:12:18.217Z,3.26
2023-01-22T10:14:45.275Z,3.33
2023-01-22T10:17:38.215Z,3.43
2023-01-22T10:20:06.458Z,3.42
2023-01-22T10:22:32.968Z,3.34
2023-01-22T10:24:59.698Z,3.35
2023-01-22T10:27:39.486Z,3.46
2023-01-22T10:30:17.259Z,3.47
2023-01-22T10:32:44.059Z,3.74
2023-01-22T10:35:19.337Z,3.94
2023-01-22T10:37:51.947Z,3.87
2023-01-22T10:40:21.745Z,3.43
2023-01-22T10:43:02.899Z,3.44
2023-01-22T10:45:29.862Z,3.56
2023-01-22T10:48:12.168Z,3.59
2023-01-22T10:50:38.786Z,3.57
2023-01-22T10:53:13.840Z,3.49
2023-01-22T10:55:42.102Z,3.51
2023-01-22T10:58:16.046Z,3.47
2023-01-22T11:00:51.797Z,3.66
2023-01-22T11:03:23.293Z,3.68
2023-01-22T11:05:56.154Z,3.61
2023-01-22T11:08:25.561Z,3.72
2023-01-22T11:10:55.627Z,3.76
2023-01-22T11:13:26.026Z,3.88
2023-01-22T11:15:58.181Z,3.77
2023-01-22T11:18:43.130Z,3.88
2023-01-22T11:21:18.932Z,3.81
2023-01-22T11:24:03.584Z,3.98
2023-01-22T11:26:49.641Z,4.00
2023-01-22T11:29:35.028Z,4.13
2023-01-22T11:32:23.447Z,4.06
2023-01-22T11:35:27.832Z,4.16
2023-01-22T11:38:03.011Z,4.39
2023-01-22T11:40:32.492Z,4.41
2023-01-22T11:43:11.551Z,4.36
2023-01-22T11:46:24.078Z,4.36
2023-01-22T11:49:05.755Z,4.47
2023-01-22T11:51:34.961Z,4.14
2023-01-22T11:54:32.971Z,4.34
2023-01-22T11:57:11.693Z,4.16
2023-01-22T12:00:06.033Z,4.33
2023-01-22T12:03:03.533Z,4.26
2023-01-22T12:05:56.325Z,4.15
2023-01-22T12:08:31.842Z,4.46
2023-01-22T12:11:07.693Z,4.54
2023-01-22T12:13:43.262Z,4.30
2023-01-22T12:16:18.706Z,4.26
2023-01-22T12:19:07.216Z,4.42
2023-01-22T12:21:48.869Z,4.33
2023-01-22T12:24:21.360Z,4.43
2023-01-22T12:26:57.051Z,4.54
2023-01-22T12:29:29.404Z,4.31
2023-01-22T12:32:05.439Z,4.36
2023-01-22T12:34:37.646Z,4.68
2023-01-22T12:37:05.408Z,4.39
2023-01-22T12:39:41.598Z,4.71
2023-01-22T12:42:40.383Z,4.55
2023-01-22T12:45:14.039Z,4.78
2023-01-22T12:48:05.346Z,4.86
2023-01-22T12:50:31.772Z,4.63
2023-01-22T12:53:03.662Z,4.36
2023-01-22T12:55:33.303Z,4.58
2023-01-22T12:57:59.785Z,4.39
2023-01-22T13:00:34.840Z,4.88
2023-01-22T13:03:32.259Z,4.50
2023-01-22T13:06:00.504Z,4.75
2023-01-22T13:08:38.988Z,4.47
2023-01-22T13:11:07.209Z,4.30
2023-01-22T13:13:45.135Z,4.73
2023-01-22T13:18:55.133Z,4.11
2023-01-22T13:21:31.179Z,4.24
2023-01-22T13:24:04.453Z,4.24
2023-01-22T13:26:34.810Z,4.17
2023-01-22T13:29:26.709Z,3.83
2023-01-22T13:32:18.181Z,4.31
2023-01-22T13:34:44.633Z,4.34
2023-01-22T13:37:25.006Z,4.15
2023-01-22T13:39:51.650Z,4.27
2023-01-22T13:42:18.764Z,4.17
2023-01-22T13:44:49.103Z,4.14
2023-01-22T13:47:28.209Z,4.07
2023-01-22T13:49:55.183Z,3.99
2023-01-22T13:52:22.356Z,4.10
2023-01-22T13:55:05.839Z,4.21
2023-01-22T13:57:32.531Z,4.15
2023-01-22T14:00:00.737Z,4.31
2023-01-22T14:02:34.726Z,4.22
2023-01-22T14:05:01.793Z,4.35
2023-01-22T14:07:28.434Z,4.22
2023-01-22T14:09:56.287Z,4.20
2023-01-22T14:12:25.860Z,4.22
2023-01-22T14:14:53.539Z,4.60
2023-01-22T14:17:29.425Z,4.30
2023-01-22T14:19:57.212Z,4.23
2023-01-22T14:22:24.523Z,4.28
2023-01-22T14:24:54.833Z,4.28
2023-01-22T14:27:23.380Z,4.34
2023-01-22T14:29:53.172Z,4.21
2023-01-22T14:32:20.184Z,4.30
2023-01-22T14:34:46.962Z,4.37
2023-01-22T14:37:17.592Z,4.25
2023-01-22T14:39:44.141Z,4.27
2023-01-22T14:42:10.544Z,4.27
2023-01-22T14:44:37.078Z,4.36
2023-01-22T14:47:04.221Z,4.29
2023-01-22T14:49:30.766Z,4.29
2023-01-22T14:51:57.812Z,4.40
2023-01-22T14:54:25.230Z,4.41
2023-01-22T14:56:51.755Z,4.45
2023-01-22T14:59:20.556Z,4.34
2023-01-22T15:01:47.286Z,4.38
2023-01-22T15:04:14.115Z,4.37
2023-01-22T15:06:40.541Z,4.39
2023-01-22T15:09:06.936Z,4.33
2023-01-22T15:11:33.481Z,4.36
2023-01-22T15:14:00.071Z,4.39
2023-01-22T15:16:26.620Z,4.35
2023-01-22T15:18:56.499Z,4.34
2023-01-22T15:21:23.385Z,4.37
2023-01-22T15:23:50.177Z,4.42
2023-01-22T15:26:24.602Z,4.41
2023-01-22T15:28:51.076Z,4.48
2023-01-22T15:31:17.558Z,4.44
2023-01-22T15:33:44.152Z,4.51
2023-01-22T15:36:10.584Z,4.51
2023-01-22T15:38:37.044Z,4.55
2023-01-22T15:41:04.463Z,4.58
2023-01-22T15:43:30.919Z,4.60
2023-01-22T15:45:57.420Z,4.62
2023-01-22T15:48:23.864Z,4.59
2023-01-22T15:50:50.503Z,4.68
2023-01-22T15:53:16.909Z,4.67
2023-01-22T15:55:50.067Z,4.67
2023-01-22T15:58:16.581Z,4.61
2023-01-22T16:00:43.035Z,4.54
2023-01-22T16:03:09.489Z,4.52
2023-01-22T16:05:35.965Z,4.41
2023-01-22T16:08:03.320Z,4.47
2023-01-22T16:10:29.746Z,4.42
2023-01-22T16:12:56.245Z,4.55
2023-01-22T16:15:22.746Z,4.54
2023-01-22T16:17:49.212Z,4.53
2023-01-22T16:20:16.111Z,4.46
2023-01-22T16:22:45.447Z,4.33
2023-01-22T16:25:12.090Z,4.37
2023-01-22T16:27:39.075Z,4.38
2023-01-22T16:30:07.401Z,4.27
2023-01-22T16:32:37.437Z,4.34
2023-01-22T16:35:04.677Z,4.40
2023-01-22T16:37:31.320Z,4.23
2023-01-22T16:39:57.712Z,4.23
2023-01-22T16:42:24.147Z,4.28
2023-01-22T16:44:50.700Z,4.24
2023-01-22T16:47:17.206Z,4.32
2023-01-22T16:49:43.838Z,4.39
2023-01-22T16:52:21.806Z,4.31
2023-01-22T16:54:49.377Z,4.42
2023-01-22T16:57:16.163Z,4.40
2023-01-22T16:59:42.684Z,4.27
2023-01-22T17:02:14.814Z,4.34
2023-01-22T17:04:41.303Z,4.28
2023-01-22T17:07:07.733Z,4.36
2023-01-22T17:09:36.185Z,4.29
2023-01-22T17:12:04.559Z,4.45
2023-01-22T17:14:33.943Z,4.31
2023-01-22T17:17:00.377Z,4.44
2023-01-22T17:19:27.300Z,4.44
2023-01-22T17:22:01.753Z,4.34
2023-01-22T17:24:29.525Z,4.45
2023-01-22T17:26:58.301Z,4.38
2023-01-22T17:29:24.996Z,4.51
2023-01-22T17:31:52.339Z,4.59
2023-01-22T17:34:18.880Z,4.42
2023-01-22T17:36:45.493Z,4.65
2023-01-22T17:39:15.179Z,4.62
2023-01-22T17:41:41.739Z,4.65
2023-01-22T17:44:17.551Z,4.59
2023-01-22T17:46:44.162Z,4.64
2023-01-22T17:49:11.358Z,4.75
2023-01-22T17:51:38.679Z,4.70
2023-01-22T17:54:06.066Z,4.66
2023-01-22T17:56:35.468Z,4.61
2023-01-22T17:59:04.389Z,4.75
2023-01-22T18:01:33.027Z,4.62
2023-01-22T18:04:01.727Z,4.61
2023-01-22T18:06:28.615Z,4.74
2023-01-22T18:08:55.548Z,4.62
2023-01-22T18:11:26.431Z,4.69
2023-01-22T18:13:58.264Z,4.68
2023-01-22T18:16:27.449Z,4.82
2023-01-22T18:18:54.536Z,4.74
2023-01-22T18:21:21.973Z,4.68
2023-01-22T18:23:49.381Z,4.68
2023-01-22T18:26:19.802Z,4.70
2023-01-22T18:28:46.287Z,4.63
2023-01-22T18:31:15.058Z,4.68
2023-01-22T18:33:44.367Z,4.62
2023-01-22T18:36:14.048Z,4.53
2023-01-22T18:38:41.116Z,4.70
2023-01-22T18:41:16.811Z,4.65
2023-01-22T18:43:46.893Z,4.75
2023-01-22T18:46:13.905Z,4.64
2023-01-22T18:48:41.601Z,4.66
2023-01-22T18:51:10.606Z,4.72
2023-01-22T18:53:37.659Z,4.69
2023-01-22T18:56:06.527Z,4.74
2023-01-22T18:58:36.002Z,4.68
2023-01-22T19:01:15.708Z,4.64
2023-01-22T19:03:44.032Z,4.60
2023-01-22T19:06:14.191Z,4.56
2023-01-22T19:08:41.800Z,4.48
2023-01-22T19:11:08.673Z,4.53
2023-01-22T19:13:35.553Z,4.70
2023-01-22T19:16:04.606Z,4.58
2023-01-22T19:18:31.513Z,4.66
2023-01-22T19:21:06.917Z,4.51
2023-01-22T19:23:34.708Z,4.67
2023-01-22T19:26:05.238Z,4.74
2023-01-22T19:28:31.648Z,4.60
2023-01-22T19:30:58.215Z,4.58
2023-01-22T19:33:27.853Z,4.68
2023-01-22T19:35:55.835Z,4.64
2023-01-22T19:38:22.606Z,4.39
2023-01-22T19:40:49.439Z,4.33
2023-01-22T19:43:15.918Z,4.30
2023-01-22T19:45:42.330Z,4.25
2023-01-22T19:48:08.780Z,4.22
2023-01-22T19:50:35.471Z,4.18
2023-01-22T19:53:02.215Z,4.29
2023-01-22T19:55:29.692Z,4.27
2023-01-22T19:57:56.238Z,4.35
2023-01-22T20:00:23.016Z,4.42
2023-01-22T20:02:49.472Z,4.54
2023-01-22T20:05:17.529Z,4.56
2023-01-22T20:07:45.358Z,4.51
2023-01-22T20:10:15.405Z,4.54
2023-01-22T20:12:43.291Z,4.45
2023-01-22T20:15:10.171Z,4.33
2023-01-22T20:17:37.166Z,4.31
2023-01-22T20:20:07.006Z,4.29
2023-01-22T20:22:33.720Z,4.41
2023-01-22T20:25:00.248Z,4.45
2023-01-22T20:27:26.685Z,4.48
2023-01-22T20:29:53.129Z,4.43
2023-01-22T20:32:20.652Z,4.41
2023-01-22T20:34:48.904Z,4.42
2023-01-22T20:37:15.424Z,4.32
2023-01-22T20:39:42.126Z,4.44
2023-01-22T20:42:08.590Z,4.39
2023-01-22T20:44:35.731Z,4.55
2023-01-22T20:47:02.135Z,4.51
2023-01-22T20:49:29.078Z,4.53
2023-01-22T20:51:55.744Z,4.34
2023-01-22T20:54:22.420Z,4.49
2023-01-22T20:56:50.317Z,4.54
2023-01-22T20:59:18.196Z,4.65
2023-01-22T21:01:45.016Z,4.54
2023-01-22T21:04:11.790Z,4.45
2023-01-22T21:06:39.439Z,4.48
2023-01-22T21:09:07.222Z,4.49
2023-01-22T21:11:35.416Z,4.53
2023-01-22T21:14:05.021Z,4.41
2023-01-22T21:16:34.277Z,4.46
2023-01-22T21:19:03.060Z,4.40
2023-01-22T21:21:30.947Z,4.42
2023-01-22T21:23:58.110Z,4.49
2023-01-22T21:26:27.557Z,4.50
2023-01-22T21:28:57.435Z,4.58
2023-01-22T21:31:25.152Z,4.55
2023-01-22T21:34:02.453Z,4.62
2023-01-22T21:36:44.925Z,4.48
2023-01-22T21:39:15.120Z,4.57
2023-01-22T21:41:42.348Z,4.55
2023-01-22T21:44:32.134Z,4.36
2023-01-22T21:46:58.752Z,4.46
2023-01-22T21:49:25.187Z,4.56
2023-01-22T21:52:05.632Z,4.50
2023-01-22T21:54:38.101Z,4.62
2023-01-22T21:57:06.231Z,4.44
2023-01-22T21:59:32.765Z,4.45
2023-01-22T22:01:59.394Z,4.32
2023-01-22T22:04:26.793Z,4.57
2023-01-22T22:06:53.641Z,4.58
2023-01-22T22:09:22.712Z,4.58
2023-01-22T22:11:49.471Z,4.56
2023-01-22T22:14:17.705Z,4.64
2023-01-22T22:16:44.612Z,4.57
2023-01-22T22:19:11.666Z,4.67
2023-01-22T22:21:38.459Z,4.66
2023-01-22T22:24:06.041Z,4.74
2023-01-22T22:26:33.071Z,4.49
2023-01-22T22:28:59.674Z,4.51
2023-01-22T22:31:26.121Z,4.59
2023-01-22T22:33:54.317Z,4.59
2023-01-22T22:36:25.782Z,4.60
2023-01-22T22:38:52.823Z,4.64
2023-01-22T22:41:21.927Z,4.83
2023-01-22T22:43:51.876Z,4.59
2023-01-22T22:46:20.846Z,4.73
2023-01-22T22:48:48.417Z,4.49
2023-01-22T22:51:26.723Z,4.77
2023-01-22T22:53:58.792Z,4.70
2023-01-22T22:56:26.773Z,4.62
2023-01-22T22:58:53.259Z,4.58
2023-01-22T23:01:21.724Z,4.70
2023-01-22T23:03:48.870Z,4.44
2023-01-22T23:06:18.133Z,4.44
2023-01-22T23:08:47.334Z,4.47
2023-01-22T23:11:15.523Z,4.55
2023-01-22T23:13:46.169Z,4.39
2023-01-22T23:16:14.329Z,4.36
2023-01-22T23:18:40.845Z,4.50
2023-01-22T23:21:12.192Z,4.57
2023-01-22T23:23:39.209Z,4.48
2023-01-22T23:26:08.119Z,4.53
2023-01-22T23:28:34.601Z,4.39
2023-01-22T23:31:05.795Z,4.45
2023-01-22T23:33:32.488Z,4.50
2023-01-22T23:36:03.572Z,4.36
2023-01-22T23:38:30.111Z,4.52
2023-01-22T23:41:03.705Z,4.63
2023-01-22T23:43:30.292Z,4.62
2023-01-22T23:45:56.715Z,4.41
2023-01-22T23:48:23.309Z,4.61
2023-01-22T23:50:51.661Z,4.37
2023-01-22T23:53:18.299Z,4.39
2023-01-22T23:55:44.760Z,4.39
2023-01-22T23:58:11.269Z,4.38
